sensor_id;sensor_type;location;lat;lon;timestamp;temperature;humidity
64561;DHT22;50960;46.838;16.838;2023-03-29T15:59:04;11.10;38.40
64561;DHT22;50960;46.838;16.838;2023-03-29T16:01:36;10.90;38.90
64561;DHT22;50960;46.838;16.838;2023-03-29T16:04:06;10.80;39.10
64561;DHT22;50960;46.838;16.838;2023-03-29T16:06:33;10.70;39.60
64561;DHT22;50960;46.838;16.838;2023-03-29T16:08:59;10.70;41.40
64561;DHT22;50960;46.838;16.838;2023-03-29T16:11:26;10.80;41.10
64561;DHT22;50960;46.838;16.838;2023-03-29T16:13:56;10.70;40.70
64561;DHT22;50960;46.838;16.838;2023-03-29T16:16:23;10.60;40.70
64561;DHT22;50960;46.838;16.838;2023-03-29T16:18:49;10.60;40.50
64561;DHT22;50960;46.838;16.838;2023-03-29T16:21:18;10.60;40.20
64561;DHT22;50960;46.838;16.838;2023-03-29T16:23:45;10.60;40.20
64561;DHT22;50960;46.838;16.838;2023-03-29T16:26:13;10.70;39.90
64561;DHT22;50960;46.838;16.838;2023-03-29T16:28:41;10.90;40.10
64561;DHT22;50960;46.838;16.838;2023-03-29T16:31:11;12.50;37.10
64561;DHT22;50960;46.838;16.838;2023-03-29T16:33:39;15.60;34.70
64561;DHT22;50960;46.838;16.838;2023-03-29T16:36:06;17.50;29.90
64561;DHT22;50960;46.838;16.838;2023-03-29T16:38:33;17.40;30.70
64561;DHT22;50960;46.838;16.838;2023-03-29T16:40:59;16.00;30.80
64561;DHT22;50960;46.838;16.838;2023-03-29T16:43:26;14.50;32.10
64561;DHT22;50960;46.838;16.838;2023-03-29T16:45:52;13.70;33.70
64561;DHT22;50960;46.838;16.838;2023-03-29T16:48:19;13.10;34.30
64561;DHT22;50960;46.838;16.838;2023-03-29T16:50:46;12.70;35.30
64561;DHT22;50960;46.838;16.838;2023-03-29T16:53:16;12.50;35.90
64561;DHT22;50960;46.838;16.838;2023-03-29T16:55:46;12.20;36.20
64561;DHT22;50960;46.838;16.838;2023-03-29T16:58:13;12.00;37.00
64561;DHT22;50960;46.838;16.838;2023-03-29T17:00:40;11.70;37.50
64561;DHT22;50960;46.838;16.838;2023-03-29T17:03:06;11.40;38.00
64561;DHT22;50960;46.838;16.838;2023-03-29T17:05:32;11.20;38.70
64561;DHT22;50960;46.838;16.838;2023-03-29T17:08:05;11.00;39.40
64561;DHT22;50960;46.838;16.838;2023-03-29T17:10:31;10.80;40.50
64561;DHT22;50960;46.838;16.838;2023-03-29T17:12:58;10.60;41.50
64561;DHT22;50960;46.838;16.838;2023-03-29T17:15:24;10.50;42.10
64561;DHT22;50960;46.838;16.838;2023-03-29T17:17:50;10.20;43.60
64561;DHT22;50960;46.838;16.838;2023-03-29T17:20:17;10.20;44.50
64561;DHT22;50960;46.838;16.838;2023-03-29T17:22:43;10.10;45.60
64561;DHT22;50960;46.838;16.838;2023-03-29T17:25:10;10.10;46.40
64561;DHT22;50960;46.838;16.838;2023-03-29T17:27:36;9.90;47.40
64561;DHT22;50960;46.838;16.838;2023-03-29T17:30:04;9.80;47.90
64561;DHT22;50960;46.838;16.838;2023-03-29T17:32:31;9.80;47.60
64561;DHT22;50960;46.838;16.838;2023-03-29T17:34:58;9.70;48.80
64561;DHT22;50960;46.838;16.838;2023-03-29T17:37:25;9.70;48.40
64561;DHT22;50960;46.838;16.838;2023-03-29T17:39:53;9.60;48.70
64561;DHT22;50960;46.838;16.838;2023-03-29T17:42:19;9.60;49.40
64561;DHT22;50960;46.838;16.838;2023-03-29T17:44:46;9.50;49.20
64561;DHT22;50960;46.838;16.838;2023-03-29T17:47:12;9.50;49.50
64561;DHT22;50960;46.838;16.838;2023-03-29T17:49:38;9.40;49.70
64561;DHT22;50960;46.838;16.838;2023-03-29T17:52:05;9.40;50.00
64561;DHT22;50960;46.838;16.838;2023-03-29T17:54:31;9.30;49.70
64561;DHT22;50960;46.838;16.838;2023-03-29T17:56:57;9.30;50.10
64561;DHT22;50960;46.838;16.838;2023-03-29T17:59:24;9.30;50.40
64561;DHT22;50960;46.838;16.838;2023-03-29T18:01:51;9.30;51.20
64561;DHT22;50960;46.838;16.838;2023-03-29T18:04:17;9.20;51.40
64561;DHT22;50960;46.838;16.838;2023-03-29T18:06:43;9.30;51.00
64561;DHT22;50960;46.838;16.838;2023-03-29T18:09:11;9.20;51.50
64561;DHT22;50960;46.838;16.838;2023-03-29T18:11:38;9.20;51.80
64561;DHT22;50960;46.838;16.838;2023-03-29T18:14:04;9.20;52.40
64561;DHT22;50960;46.838;16.838;2023-03-29T18:16:30;9.10;52.40
64561;DHT22;50960;46.838;16.838;2023-03-29T18:18:57;9.10;52.80
64561;DHT22;50960;46.838;16.838;2023-03-29T18:21:24;9.10;52.70
64561;DHT22;50960;46.838;16.838;2023-03-29T18:23:52;9.00;53.10
64561;DHT22;50960;46.838;16.838;2023-03-29T18:26:20;9.00;53.60
64561;DHT22;50960;46.838;16.838;2023-03-29T18:28:47;9.00;53.50
64561;DHT22;50960;46.838;16.838;2023-03-29T18:31:14;9.00;53.40
64561;DHT22;50960;46.838;16.838;2023-03-29T18:33:41;9.00;54.20
64561;DHT22;50960;46.838;16.838;2023-03-29T18:36:09;9.00;54.10
64561;DHT22;50960;46.838;16.838;2023-03-29T18:38:35;9.00;53.70
64561;DHT22;50960;46.838;16.838;2023-03-29T18:41:03;9.00;53.80
64561;DHT22;50960;46.838;16.838;2023-03-29T18:43:31;8.80;53.90
64561;DHT22;50960;46.838;16.838;2023-03-29T18:45:59;8.80;54.10
64561;DHT22;50960;46.838;16.838;2023-03-29T18:48:25;8.90;54.70
64561;DHT22;50960;46.838;16.838;2023-03-29T18:50:55;8.70;53.90
64561;DHT22;50960;46.838;16.838;2023-03-29T18:53:22;8.80;54.10
64561;DHT22;50960;46.838;16.838;2023-03-29T18:55:48;8.80;54.10
64561;DHT22;50960;46.838;16.838;2023-03-29T18:58:15;8.80;53.80
64561;DHT22;50960;46.838;16.838;2023-03-29T19:00:42;8.80;53.70
64561;DHT22;50960;46.838;16.838;2023-03-29T19:03:09;8.80;53.30
64561;DHT22;50960;46.838;16.838;2023-03-29T19:05:39;8.80;54.00
64561;DHT22;50960;46.838;16.838;2023-03-29T19:08:06;8.80;54.40
64561;DHT22;50960;46.838;16.838;2023-03-29T19:10:35;8.90;54.30
64561;DHT22;50960;46.838;16.838;2023-03-29T19:13:01;8.80;54.10
64561;DHT22;50960;46.838;16.838;2023-03-29T19:15:28;8.80;53.60
64561;DHT22;50960;46.838;16.838;2023-03-29T19:17:54;8.80;52.90
64561;DHT22;50960;46.838;16.838;2023-03-29T19:20:20;8.80;53.70
64561;DHT22;50960;46.838;16.838;2023-03-29T19:22:47;8.70;53.40
64561;DHT22;50960;46.838;16.838;2023-03-29T19:25:13;8.80;53.70
64561;DHT22;50960;46.838;16.838;2023-03-29T19:27:39;8.80;53.70
64561;DHT22;50960;46.838;16.838;2023-03-29T19:30:07;8.80;53.70
64561;DHT22;50960;46.838;16.838;2023-03-29T19:32:34;8.80;53.00
64561;DHT22;50960;46.838;16.838;2023-03-29T19:35:01;8.80;52.50
64561;DHT22;50960;46.838;16.838;2023-03-29T19:37:27;8.80;53.10
64561;DHT22;50960;46.838;16.838;2023-03-29T19:39:53;8.80;52.90
64561;DHT22;50960;46.838;16.838;2023-03-29T19:42:22;8.80;52.90
64561;DHT22;50960;46.838;16.838;2023-03-29T19:44:48;8.70;53.40
64561;DHT22;50960;46.838;16.838;2023-03-29T19:47:15;8.70;53.20
64561;DHT22;50960;46.838;16.838;2023-03-29T19:49:42;8.70;52.90
64561;DHT22;50960;46.838;16.838;2023-03-29T19:52:08;8.70;52.70
64561;DHT22;50960;46.838;16.838;2023-03-29T19:54:35;8.70;52.60
64561;DHT22;50960;46.838;16.838;2023-03-29T19:57:02;8.70;52.80
64561;DHT22;50960;46.838;16.838;2023-03-29T19:59:29;8.70;53.60
64561;DHT22;50960;46.838;16.838;2023-03-29T20:01:56;8.70;53.30
64561;DHT22;50960;46.838;16.838;2023-03-29T20:04:23;8.70;53.70
64561;DHT22;50960;46.838;16.838;2023-03-29T20:06:50;8.60;53.20
64561;DHT22;50960;46.838;16.838;2023-03-29T20:09:16;8.60;53.60
64561;DHT22;50960;46.838;16.838;2023-03-29T20:11:44;8.70;54.00
64561;DHT22;50960;46.838;16.838;2023-03-29T20:14:12;8.70;54.70
64561;DHT22;50960;46.838;16.838;2023-03-29T20:16:38;8.70;55.10
64561;DHT22;50960;46.838;16.838;2023-03-29T20:19:06;8.70;55.70
64561;DHT22;50960;46.838;16.838;2023-03-29T20:21:32;8.60;54.50
64561;DHT22;50960;46.838;16.838;2023-03-29T20:23:59;8.60;54.20
64561;DHT22;50960;46.838;16.838;2023-03-29T20:26:26;8.60;54.80
64561;DHT22;50960;46.838;16.838;2023-03-29T20:28:53;8.50;53.90
64561;DHT22;50960;46.838;16.838;2023-03-29T20:31:20;8.40;55.70
64561;DHT22;50960;46.838;16.838;2023-03-29T20:33:46;8.40;55.50
64561;DHT22;50960;46.838;16.838;2023-03-29T20:36:12;8.40;54.80
64561;DHT22;50960;46.838;16.838;2023-03-29T20:38:44;8.40;54.60
64561;DHT22;50960;46.838;16.838;2023-03-29T20:41:10;8.40;54.80
64561;DHT22;50960;46.838;16.838;2023-03-29T20:43:36;8.40;54.90
64561;DHT22;50960;46.838;16.838;2023-03-29T20:46:04;8.40;54.70
64561;DHT22;50960;46.838;16.838;2023-03-29T20:48:30;8.40;55.20
64561;DHT22;50960;46.838;16.838;2023-03-29T20:50:57;8.30;55.30
64561;DHT22;50960;46.838;16.838;2023-03-29T20:53:29;8.30;56.10
64561;DHT22;50960;46.838;16.838;2023-03-29T20:55:59;8.30;56.80
64561;DHT22;50960;46.838;16.838;2023-03-29T20:58:25;8.40;57.40
64561;DHT22;50960;46.838;16.838;2023-03-29T21:00:53;8.30;56.20
64561;DHT22;50960;46.838;16.838;2023-03-29T21:03:19;8.30;55.50
64561;DHT22;50960;46.838;16.838;2023-03-29T21:05:46;8.20;56.30
64561;DHT22;50960;46.838;16.838;2023-03-29T21:08:13;8.30;56.40
64561;DHT22;50960;46.838;16.838;2023-03-29T21:10:40;8.30;56.80
